A- A+ FrançaisEnglishEspañol中国

le plus proche LFBT Tarbes-Lourdes-PyrénéesLFMO Orange-CaritatLFOH Le-Havre-OctevilleLFAQ Albert-Bray

manche à air

La météo aéronautique pour les pilotes, la préparation du vol avec les METAR (METeorological Aerodrome Report, message d'observation des conditions météorologiques pour l'aviation) et Les TAF (Terminal Aerodrome Forecast : message de prévision à court terme des conditions météorologiques pour l'aviation). Et les autres ressources comme les VAC (Visual Approch Chart) et les NOTAM (Notice To Airman) pour préprer les vols.

Aéroport Kuressaare (Estonie) / OACI EEKE/ IATA URE

L'altitude de l'aéroport Kuressaare est de 4 m=13 ft. Il est situé à proximité de Kuressaare (Estonie). La météo générale à 5 jours est disponible pour Hanila vald situé à 79.9 km.

METAR de l'aéroport Kuressaare - EEKE

EEKE 290950Z 20009KT 9999 FEW004 SCT016 BKN024CB 13/13 Q0998

Décodage du METAR de l'aéroport Kuressaare (EE)

METAR émis par EEKE le dimanche 29 septembre 2019 à 09:50 heure TU. Attention ce METAR est obsolète car il a été émis il y a 18 heure et 40 minutes.

La visibilité est de supérieure à 10 km=supérieure à 6.2 sm.

La température est de 13°C=55 °F et le point rosée est de 13°C=55 °F . Ce qui correspond à 100% d'humidité relative.

Le QNH est de 998 hPa=29.47 inHg

Vent de 9 kt=17 km/h, orienté à 200°.

Nuages : Quelques nuages à 400 ft=120 mètres. Nuages épars à 1600 ft=490 mètres. Couverture nuageuse fragmentée à 2400 ft=730 mètres.

TAF de l'aéroport Kuressaare - EEKE

EEKE 280700Z 2808/2814 12014G28KT CAVOK BECMG 2810/2812 3000 SHRA BR BKN005 BKN015CB OVC030

EEKE 280700Z 2808/2814 12014G28KT visibilité supérieure à 10km, aucun nuage à une hauteur inférieure à 5000 ft ou sous l'altitude minimale de secteur et aucun cumulonimbus ou cumulus bourgeonnant, quelle que soit leur altitude devenant 2810/2812 3000 SHRA brume couverture nuageuse fragmentée à 005 couverture nuageuse fragmentée à 015CB couverture nuageuse soudée à 030

Aéroport à proximité de Kuressaare

Météo générale à 5 jours à Hanila vald (79.9 km)EERU Aéroport Ruhnu (67 km)EEKA Aéroport Kardla (87 km)EEKU Aéroport Kinhu (88 km)EVVA Aéroport Ventspils (113 km)EEPU Aéroport Parnu (117 km)EVTA Aéroport Tukums (149 km)

VAC de l'aéroport Kuressaare - EEKE

La carte d'approche à vue (VAC Visual Approah Chart) est fournie sans aucune garantie de son actualité. Le pilote est le seul responsable de la vérification de sa validité avant de l'utiliser opérationnellement pour préparer un vol ou l'utiliser lors de sa navigation.

VAC de EEKE

Vue aérienne de l'aéroport Kuressaare

NOTAM de l'aéroport Kuressaare

Les NOTAM sont fournis sans aucune garantie de leur actualité. Le pilote est le seul responsable de la vérification de sa validité avant de l'utiliser opérationnellement pour préparer un vol ou l'utiliser lors de sa navigation.

Pas de NOTAM

Sources des données